createdAt,value
2022-12-12T00:03:02.601Z,12.10
2022-12-12T00:06:06.261Z,12.20
2022-12-12T00:09:09.578Z,11.97
2022-12-12T00:12:14.034Z,11.90
2022-12-12T00:15:17.157Z,11.43
2022-12-12T00:18:20.162Z,11.33
2022-12-12T00:21:25.822Z,11.77
2022-12-12T00:24:28.831Z,11.57
2022-12-12T00:27:34.663Z,11.57
2022-12-12T00:30:37.705Z,11.23
2022-12-12T00:33:40.999Z,10.37
2022-12-12T00:36:44.029Z,10.73
2022-12-12T00:39:47.495Z,10.33
2022-12-12T00:42:51.962Z,10.50
2022-12-12T00:45:55.212Z,10.07
2022-12-12T00:48:59.769Z,9.07
2022-12-12T00:52:02.945Z,9.90
2022-12-12T00:55:07.128Z,10.23
2022-12-12T00:58:11.593Z,9.90
2022-12-12T01:01:17.708Z,9.00
2022-12-12T01:04:20.840Z,8.90
2022-12-12T01:07:23.818Z,9.63
2022-12-12T01:10:26.875Z,8.70
2022-12-12T01:13:31.643Z,8.43
2022-12-12T01:16:34.963Z,8.33
2022-12-12T01:19:38.040Z,8.50
2022-12-12T01:22:41.229Z,8.80
2022-12-12T01:25:44.272Z,7.57
2022-12-12T01:28:48.741Z,7.83
2022-12-12T01:31:51.951Z,7.33
2022-12-12T01:34:54.997Z,7.60
2022-12-12T01:37:58.011Z,7.17
2022-12-12T01:41:01.111Z,7.10
2022-12-12T01:44:28.731Z,7.00
2022-12-12T01:47:31.735Z,7.27
2022-12-12T01:50:34.859Z,6.40
2022-12-12T01:53:38.610Z,6.47
2022-12-12T01:56:44.350Z,6.30
2022-12-12T01:59:49.064Z,6.30
2022-12-12T02:02:53.829Z,5.50
2022-12-12T02:06:01.254Z,6.50
2022-12-12T02:09:08.555Z,6.70
2022-12-12T02:12:15.057Z,5.80
2022-12-12T02:15:19.587Z,5.40
2022-12-12T02:18:29.917Z,5.80
2022-12-12T02:21:42.974Z,6.03
2022-12-12T02:25:18.847Z,6.17
2022-12-12T02:28:42.025Z,5.23
2022-12-12T02:31:53.156Z,5.50
2022-12-12T02:35:05.665Z,5.30
2022-12-12T02:38:19.728Z,5.60
2022-12-12T02:41:29.565Z,5.13
2022-12-12T02:44:41.155Z,5.33
2022-12-12T02:47:49.365Z,5.60
2022-12-12T02:50:55.514Z,5.07
2022-12-12T02:54:00.255Z,5.63
2022-12-12T02:57:03.826Z,5.40
2022-12-12T03:00:10.056Z,4.97
2022-12-12T03:03:47.096Z,4.77
2022-12-12T03:07:19.495Z,5.13
2022-12-12T03:10:35.900Z,4.57
2022-12-12T03:13:47.134Z,4.83
2022-12-12T03:16:56.491Z,4.77
2022-12-12T03:20:08.119Z,4.30
2022-12-12T03:23:16.561Z,4.53
2022-12-12T03:26:26.619Z,4.50
2022-12-12T03:29:33.492Z,4.80
2022-12-12T03:32:58.005Z,4.93
2022-12-12T03:36:08.411Z,5.20
2022-12-12T03:39:17.866Z,4.83
2022-12-12T03:42:25.027Z,4.27
2022-12-12T03:45:33.818Z,4.57
2022-12-12T03:48:41.991Z,4.40
2022-12-12T03:51:51.203Z,4.40
2022-12-12T03:55:00.147Z,4.20
2022-12-12T03:58:10.260Z,3.93
2022-12-12T04:01:15.333Z,3.80
2022-12-12T04:04:25.158Z,4.50
2022-12-12T04:07:34.544Z,4.77
2022-12-12T04:11:16.904Z,4.27
2022-12-12T04:14:35.064Z,4.40
2022-12-12T04:17:43.470Z,4.23
2022-12-12T04:21:14.965Z,5.00
2022-12-12T04:24:26.397Z,6.40
2022-12-12T04:27:36.074Z,4.33
2022-12-12T04:30:39.446Z,4.80
2022-12-12T04:33:49.939Z,4.80
2022-12-12T04:36:54.390Z,5.30
2022-12-12T04:40:01.375Z,4.90
2022-12-12T04:43:07.740Z,5.70
2022-12-12T04:46:15.044Z,4.60
2022-12-12T04:49:21.691Z,4.80
2022-12-12T04:52:27.056Z,5.40
2022-12-12T04:55:34.421Z,6.40
2022-12-12T04:58:38.626Z,5.37
2022-12-12T05:01:53.748Z,5.10
2022-12-12T05:05:00.427Z,5.40
2022-12-12T05:08:07.936Z,4.80
2022-12-12T05:11:13.272Z,5.07
2022-12-12T05:14:17.465Z,4.70
2022-12-12T05:17:27.479Z,4.90
2022-12-12T05:20:30.563Z,5.50
2022-12-12T05:23:35.012Z,5.43
2022-12-12T05:26:39.821Z,5.50
2022-12-12T05:29:42.860Z,4.60
2022-12-12T05:32:46.021Z,4.77
2022-12-12T05:35:49.120Z,4.90
2022-12-12T05:38:52.203Z,5.30
2022-12-12T05:41:56.620Z,5.00
2022-12-12T05:44:59.671Z,5.60
2022-12-12T05:48:02.754Z,4.73
2022-12-12T05:51:06.441Z,5.13
2022-12-12T05:54:09.505Z,5.00
2022-12-12T05:57:13.961Z,5.00
2022-12-12T06:00:17.495Z,5.70
2022-12-12T06:03:20.678Z,4.90
2022-12-12T06:06:24.120Z,5.33
2022-12-12T06:09:27.091Z,5.30
2022-12-12T06:12:31.464Z,5.17
2022-12-12T06:15:34.639Z,5.20
2022-12-12T06:18:38.067Z,6.00
2022-12-12T06:21:41.264Z,5.40
2022-12-12T06:24:44.405Z,4.90
2022-12-12T06:27:48.816Z,5.10
2022-12-12T06:30:51.883Z,5.20
2022-12-12T06:33:54.891Z,4.90
2022-12-12T06:36:57.930Z,5.47
2022-12-12T06:40:00.933Z,4.60
2022-12-12T06:43:05.273Z,5.23
2022-12-12T06:46:11.780Z,5.30
2022-12-12T06:49:14.819Z,5.33
2022-12-12T06:52:17.809Z,5.47
2022-12-12T06:55:20.852Z,5.20
2022-12-12T06:58:25.280Z,4.90
2022-12-12T07:01:28.550Z,4.80
2022-12-12T07:04:31.743Z,4.80
2022-12-12T07:07:34.848Z,5.90
2022-12-12T07:10:38.197Z,4.73
2022-12-12T07:13:43.058Z,5.20
2022-12-12T07:16:46.051Z,4.70
2022-12-12T07:19:49.096Z,5.47
2022-12-12T07:22:52.212Z,5.57
2022-12-12T07:25:55.273Z,4.90
2022-12-12T07:28:59.771Z,5.40
2022-12-12T07:32:02.829Z,5.20
2022-12-12T07:35:06.436Z,5.23
2022-12-12T07:38:10.438Z,4.90
2022-12-12T07:41:15.076Z,5.60
2022-12-12T07:44:19.513Z,5.57
2022-12-12T07:47:22.482Z,5.97
2022-12-12T07:50:25.572Z,5.60
2022-12-12T07:53:29.053Z,5.10
2022-12-12T07:56:32.096Z,5.70
2022-12-12T07:59:36.498Z,5.43
2022-12-12T08:02:39.534Z,6.07
2022-12-12T08:05:42.822Z,5.50
2022-12-12T08:08:46.601Z,5.33
2022-12-12T08:11:49.660Z,5.60
2022-12-12T08:14:54.172Z,5.50
2022-12-12T08:17:57.196Z,5.70
2022-12-12T08:21:00.194Z,6.50
2022-12-12T08:24:04.153Z,5.80
2022-12-12T08:27:10.823Z,5.60
2022-12-12T08:30:19.916Z,5.80
2022-12-12T08:33:22.907Z,5.73
2022-12-12T08:36:30.157Z,6.50
2022-12-12T08:39:33.206Z,6.40
2022-12-12T08:42:36.223Z,6.43
2022-12-12T08:45:40.905Z,6.43
2022-12-12T08:48:44.343Z,6.70
2022-12-12T08:51:47.412Z,6.40
2022-12-12T08:54:50.507Z,7.20
2022-12-12T08:57:53.481Z,7.33
2022-12-12T09:00:57.875Z,6.40
2022-12-12T09:04:00.853Z,6.60
2022-12-12T09:07:08.415Z,7.33
2022-12-12T09:10:11.840Z,7.50
2022-12-12T09:13:14.791Z,7.97
2022-12-12T09:16:19.462Z,7.70
2022-12-12T09:19:22.570Z,7.87
2022-12-12T09:22:25.653Z,7.30
2022-12-12T09:25:28.869Z,8.00
2022-12-12T09:28:31.990Z,7.27
2022-12-12T09:31:36.504Z,8.10
2022-12-12T09:34:39.790Z,8.23
2022-12-12T09:37:42.795Z,7.87
2022-12-12T09:40:53.231Z,8.40
2022-12-12T09:43:58.950Z,9.07
2022-12-12T09:47:08.988Z,8.93
2022-12-12T09:50:19.836Z,9.37
2022-12-12T09:53:26.620Z,9.03
2022-12-12T09:56:36.548Z,8.70
2022-12-12T09:59:45.370Z,9.00
2022-12-12T10:03:03.684Z,9.00
2022-12-12T10:09:59.242Z,9.27
2022-12-12T10:13:06.279Z,9.37
2022-12-12T10:16:12.282Z,9.10
2022-12-12T10:19:23.315Z,9.30
2022-12-12T10:22:36.095Z,9.40
2022-12-12T10:25:46.163Z,9.40
2022-12-12T10:28:53.330Z,9.53
2022-12-12T10:32:08.295Z,9.77
2022-12-12T10:35:26.449Z,9.70
2022-12-12T10:38:50.210Z,9.33
2022-12-12T10:42:02.219Z,9.63
2022-12-12T10:45:31.711Z,9.27
2022-12-12T10:48:35.220Z,9.80
2022-12-12T10:51:39.767Z,9.90
2022-12-12T10:54:47.694Z,9.33
2022-12-12T10:58:03.793Z,9.17
2022-12-12T11:01:13.568Z,9.87
2022-12-12T11:04:16.872Z,9.33
2022-12-12T11:07:23.651Z,10.10
2022-12-12T11:10:33.938Z,9.13
2022-12-12T11:13:46.358Z,9.20
2022-12-12T11:16:49.514Z,8.60
2022-12-12T11:19:54.253Z,10.20
2022-12-12T11:22:59.218Z,8.47
2022-12-12T11:26:05.100Z,9.40
2022-12-12T11:29:08.507Z,8.70
2022-12-12T11:32:15.736Z,8.80
2022-12-12T11:35:25.072Z,9.50
2022-12-12T11:38:31.687Z,9.07
2022-12-12T11:41:58.774Z,9.33
2022-12-12T11:45:06.035Z,8.43
2022-12-12T11:48:33.834Z,8.93
2022-12-12T11:51:39.782Z,7.90
2022-12-12T11:54:44.116Z,7.90
2022-12-12T11:58:12.168Z,8.90
2022-12-12T12:01:22.544Z,9.00
2022-12-12T12:04:52.863Z,8.60
2022-12-12T12:08:09.819Z,8.83
2022-12-12T12:11:27.683Z,8.33
2022-12-12T12:14:46.953Z,8.70
2022-12-12T12:18:06.026Z,8.93
2022-12-12T12:21:31.123Z,8.33
2022-12-12T12:24:55.085Z,8.07
2022-12-12T12:28:15.616Z,8.70
2022-12-12T12:31:25.756Z,8.80
2022-12-12T12:34:40.280Z,8.23
2022-12-12T12:37:54.273Z,7.97
2022-12-12T12:41:27.065Z,9.10
2022-12-12T12:44:42.386Z,9.40
2022-12-12T12:47:52.227Z,8.60
2022-12-12T12:51:04.651Z,8.20
2022-12-12T12:54:14.554Z,8.03
2022-12-12T12:57:22.932Z,8.50
2022-12-12T13:00:31.497Z,8.17
2022-12-12T13:03:39.161Z,9.60
2022-12-12T13:06:47.794Z,8.57
2022-12-12T13:09:59.556Z,8.43
2022-12-12T13:13:08.666Z,8.03
2022-12-12T13:16:17.014Z,8.57
2022-12-12T13:19:30.672Z,8.10
2022-12-12T13:22:44.770Z,8.77
2022-12-12T13:25:56.677Z,8.40
2022-12-12T13:29:05.260Z,8.37
2022-12-12T13:33:01.432Z,9.40
2022-12-12T13:36:12.629Z,9.03
2022-12-12T13:39:26.707Z,8.40
2022-12-12T13:42:53.195Z,9.00
2022-12-12T13:45:56.459Z,8.40
2022-12-12T13:49:11.939Z,8.30
2022-12-12T13:52:30.832Z,7.77
2022-12-12T13:55:34.077Z,8.23
2022-12-12T13:58:37.120Z,9.00
2022-12-12T14:01:41.295Z,7.70
2022-12-12T14:04:47.956Z,8.00
2022-12-12T14:07:53.285Z,8.43
2022-12-12T14:10:59.991Z,7.80
2022-12-12T14:14:09.076Z,7.70
2022-12-12T14:17:22.126Z,7.97
2022-12-12T14:20:31.298Z,7.30
2022-12-12T14:23:36.274Z,7.37
2022-12-12T14:26:51.629Z,7.93
2022-12-12T14:29:54.650Z,8.17
2022-12-12T14:33:10.101Z,7.70
2022-12-12T14:36:31.848Z,8.17
2022-12-12T14:39:58.317Z,7.47
2022-12-12T14:43:20.660Z,7.97
2022-12-12T14:46:25.535Z,7.57
2022-12-12T14:49:28.637Z,7.90
2022-12-12T14:52:33.123Z,8.50
2022-12-12T14:55:36.153Z,7.90
2022-12-12T14:58:42.663Z,7.70
2022-12-12T15:01:48.326Z,7.43
2022-12-12T15:04:55.954Z,7.47
2022-12-12T15:08:02.626Z,7.17
2022-12-12T15:11:05.955Z,7.63
2022-12-12T15:14:19.267Z,7.37
2022-12-12T15:17:26.726Z,7.03
2022-12-12T15:20:32.201Z,8.10
2022-12-12T15:23:36.657Z,7.70
2022-12-12T15:26:39.752Z,7.30
2022-12-12T15:29:43.992Z,7.67
2022-12-12T15:32:49.003Z,7.03
2022-12-12T15:35:59.565Z,8.30
2022-12-12T15:39:15.728Z,7.70
2022-12-12T15:42:18.795Z,7.60
2022-12-12T15:45:29.386Z,7.53
2022-12-12T15:48:32.362Z,7.10
2022-12-12T15:51:35.475Z,7.20
2022-12-12T15:54:47.304Z,7.57
2022-12-12T15:57:53.280Z,7.60
2022-12-12T16:01:04.432Z,7.07
2022-12-12T16:04:23.726Z,7.97
2022-12-12T16:07:26.759Z,8.33
2022-12-12T16:10:31.227Z,7.87
2022-12-12T16:13:39.334Z,7.43
2022-12-12T16:16:48.120Z,7.30
2022-12-12T16:19:56.343Z,7.10
2022-12-12T16:23:11.746Z,7.10
2022-12-12T16:26:16.203Z,7.67
2022-12-12T16:29:19.287Z,6.70
2022-12-12T16:32:23.651Z,7.63
2022-12-12T16:35:26.793Z,7.17
2022-12-12T16:38:30.527Z,14.17
2022-12-12T16:41:35.276Z,13.60
2022-12-12T16:44:38.328Z,11.87
2022-12-12T16:47:42.155Z,25.17
2022-12-12T16:50:45.716Z,79.13
2022-12-12T16:53:48.986Z,93.40
2022-12-12T16:56:54.152Z,86.57
2022-12-12T16:59:57.116Z,115.77
2022-12-12T17:03:00.225Z,120.77
2022-12-12T17:06:03.452Z,139.37
2022-12-12T17:09:06.489Z,135.47
2022-12-12T17:12:12.940Z,137.80
2022-12-12T17:15:21.222Z,127.20
2022-12-12T17:18:24.804Z,121.67
2022-12-12T17:21:27.864Z,120.57
2022-12-12T17:24:31.200Z,112.17
2022-12-12T17:27:35.800Z,104.70
2022-12-12T17:30:40.519Z,102.63
2022-12-12T17:33:50.609Z,103.67
2022-12-12T17:36:54.232Z,98.83
2022-12-12T17:39:57.428Z,93.13
2022-12-12T17:43:03.971Z,82.23
2022-12-12T17:46:09.710Z,65.40
2022-12-12T17:49:12.760Z,60.13
2022-12-12T17:52:16.098Z,51.70
2022-12-12T17:55:55.058Z,49.60
2022-12-12T17:58:45.426Z,48.00
2022-12-12T18:01:53.942Z,45.63
2022-12-12T18:04:57.122Z,44.27
2022-12-12T18:08:01.526Z,42.93
2022-12-12T18:11:07.668Z,42.40
2022-12-12T18:14:15.463Z,43.00
2022-12-12T18:17:18.543Z,43.77
2022-12-12T18:20:22.797Z,42.70
2022-12-12T18:23:28.398Z,40.17
2022-12-12T18:26:31.459Z,39.77
2022-12-12T18:29:35.940Z,37.60
2022-12-12T18:32:38.986Z,36.93
2022-12-12T18:35:41.949Z,36.33
2022-12-12T18:38:47.774Z,34.53
2022-12-12T18:41:52.136Z,34.50
2022-12-12T18:44:56.612Z,32.17
2022-12-12T18:47:59.567Z,31.87
2022-12-12T18:51:06.532Z,31.40
2022-12-12T18:54:14.608Z,31.37
2022-12-12T18:57:18.299Z,29.40
2022-12-12T19:00:23.094Z,28.50
2022-12-12T19:03:26.135Z,28.50
2022-12-12T19:06:33.904Z,27.23
2022-12-12T19:09:36.977Z,26.67
2022-12-12T19:12:40.136Z,25.40
2022-12-12T19:15:44.603Z,25.37
2022-12-12T19:18:48.147Z,24.83
2022-12-12T19:21:52.387Z,24.03
2022-12-12T19:24:55.428Z,23.00
2022-12-12T19:27:59.787Z,22.20
2022-12-12T19:31:07.897Z,21.23
2022-12-12T19:34:14.057Z,21.33
2022-12-12T19:37:17.132Z,20.10
2022-12-12T19:40:20.385Z,20.73
2022-12-12T19:43:23.396Z,19.80
2022-12-12T19:46:31.022Z,17.70
2022-12-12T19:49:34.184Z,18.00
2022-12-12T19:52:37.298Z,16.87
2022-12-12T19:55:47.675Z,16.93
2022-12-12T19:58:51.119Z,17.00
2022-12-12T20:01:55.751Z,17.00
2022-12-12T20:04:58.889Z,17.60
2022-12-12T20:08:02.020Z,16.70
2022-12-12T20:11:06.380Z,16.77
2022-12-12T20:14:12.788Z,16.50
2022-12-12T20:17:17.250Z,16.30
2022-12-12T20:20:20.253Z,16.63
2022-12-12T20:23:23.306Z,15.90
2022-12-12T20:26:28.349Z,15.83
2022-12-12T20:29:32.077Z,14.43
2022-12-12T20:32:36.556Z,15.10
2022-12-12T20:35:39.591Z,13.70
2022-12-12T20:38:43.034Z,13.93
2022-12-12T20:41:46.414Z,13.63
2022-12-12T20:44:50.459Z,13.77
2022-12-12T20:47:54.859Z,12.33
2022-12-12T20:50:59.324Z,11.73
2022-12-12T20:54:04.779Z,12.27
2022-12-12T20:57:07.808Z,12.10
2022-12-12T21:00:12.860Z,11.63
2022-12-12T21:03:17.600Z,12.00
2022-12-12T21:06:23.319Z,11.30
2022-12-12T21:09:27.004Z,10.73
2022-12-12T21:12:30.357Z,10.57
2022-12-12T21:15:33.476Z,10.70
2022-12-12T21:18:38.503Z,11.20
2022-12-12T21:21:43.259Z,11.40
2022-12-12T21:24:46.339Z,10.93
2022-12-12T21:27:49.361Z,10.30
2022-12-12T21:30:52.494Z,9.97
2022-12-12T21:33:57.319Z,10.43
2022-12-12T21:37:00.337Z,10.20
2022-12-12T21:40:03.420Z,9.90
2022-12-12T21:43:06.438Z,9.63
2022-12-12T21:46:12.393Z,9.50
2022-12-12T21:49:30.649Z,9.40
2022-12-12T21:52:33.636Z,9.83
2022-12-12T21:55:38.157Z,10.07
2022-12-12T21:58:43.142Z,9.70
2022-12-12T22:01:46.190Z,8.80
2022-12-12T22:04:50.605Z,8.97
2022-12-12T22:07:53.709Z,8.80
2022-12-12T22:11:00.242Z,8.83
2022-12-12T22:14:03.531Z,9.53
2022-12-12T22:17:07.001Z,9.20
2022-12-12T22:20:12.869Z,9.07
2022-12-12T22:23:16.538Z,9.13
2022-12-12T22:26:22.848Z,8.40
2022-12-12T22:29:25.835Z,8.43
2022-12-12T22:32:29.723Z,8.73
2022-12-12T22:35:34.095Z,8.70
2022-12-12T22:38:38.612Z,8.70
2022-12-12T22:41:41.760Z,8.33
2022-12-12T22:44:44.780Z,8.80
2022-12-12T22:47:47.824Z,7.83
2022-12-12T22:50:52.193Z,8.30
2022-12-12T22:53:56.993Z,8.30
2022-12-12T22:57:00.082Z,8.40
2022-12-12T23:00:03.140Z,8.37
2022-12-12T23:03:06.175Z,7.97
2022-12-12T23:06:13.821Z,8.10
2022-12-12T23:09:22.704Z,7.80
2022-12-12T23:12:25.783Z,7.87
2022-12-12T23:15:29.013Z,7.97
2022-12-12T23:18:32.117Z,7.60
2022-12-12T23:21:38.150Z,7.83
2022-12-12T23:24:41.249Z,6.87
2022-12-12T23:27:44.411Z,7.67
2022-12-12T23:30:47.460Z,7.60
2022-12-12T23:33:53.575Z,7.70
2022-12-12T23:36:58.227Z,7.23
2022-12-12T23:40:02.292Z,7.17
2022-12-12T23:43:05.320Z,7.50
2022-12-12T23:46:28.229Z,6.43
2022-12-12T23:49:31.536Z,7.27
2022-12-12T23:52:35.915Z,7.10
2022-12-12T23:55:38.919Z,6.60
2022-12-12T23:58:41.991Z,6.70
